Time;durP1;ratioP1;P1;durP2;ratioP2;P2;SDS_P1;SDS_P2;PMS_P1;PMS_P2;Temp;Humidity;BMP_temperature;BMP_pressure;BME280_temperature;BME280_humidity;BME280_pressure;Samples;Min_cycle;Max_cycle;Signal;HPM_P1;HPM_P2
2021/03/30 00:01:15;;;;;;;1.40;0.20;;;13.20;61.80;;;;;;5093715;28;20191;-63
2021/03/30 00:03:40;;;;;;;1.40;0.20;;;13.10;62.20;;;;;;5087389;28;20183;-62
2021/03/30 00:06:06;;;;;;;1.40;0.20;;;13.10;62.40;;;;;;5094719;28;20183;-62
2021/03/30 00:08:32;;;;;;;1.40;0.20;;;13.00;62.70;;;;;;5093231;28;20195;-62
2021/03/30 00:10:58;;;;;;;1.37;0.20;;;12.90;63.10;;;;;;5096672;28;20223;-62
2021/03/30 00:13:23;;;;;;;1.40;0.20;;;12.80;63.60;;;;;;5097282;28;20211;-62
2021/03/30 00:15:49;;;;;;;1.40;0.20;;;12.80;64.20;;;;;;5098351;28;20429;-62
2021/03/30 00:18:15;;;;;;;1.40;0.20;;;12.70;64.40;;;;;;5071648;28;20207;-62
2021/03/30 00:20:41;;;;;;;1.80;1.47;;;12.80;65.00;;;;;;5100908;28;20730;-62
2021/03/30 00:23:07;;;;;;;1.40;0.20;;;12.70;65.30;;;;;;5095054;28;20457;-63
2021/03/30 00:25:33;;;;;;;1.40;0.20;;;12.70;65.50;;;;;;5092004;28;20189;-63
2021/03/30 00:27:58;;;;;;;1.40;0.20;;;12.60;66.10;;;;;;5089627;28;20998;-62
2021/03/30 00:30:24;;;;;;;1.40;0.20;;;12.60;66.50;;;;;;5090767;28;20191;-62
2021/03/30 00:32:50;;;;;;;1.37;0.20;;;12.50;67.00;;;;;;5096582;28;20204;-62
2021/03/30 00:35:15;;;;;;;1.40;0.20;;;12.50;67.50;;;;;;5094479;28;20187;-62
2021/03/30 00:37:41;;;;;;;1.40;0.20;;;12.40;67.70;;;;;;5089714;28;20192;-62
2021/03/30 00:40:09;;;;;;;1.40;0.20;;;12.40;68.20;;;;;;5091893;28;20200;-62
2021/03/30 00:42:36;;;;;;;1.40;0.20;;;12.30;68.80;;;;;;5100519;28;20282;-62
2021/03/30 00:45:03;;;;;;;1.40;0.20;;;12.30;69.60;;;;;;5086613;28;20434;-62
2021/03/30 00:47:32;;;;;;;1.40;0.20;;;12.30;69.60;;;;;;5096344;28;20458;-62
2021/03/30 00:49:58;;;;;;;1.40;0.20;;;12.30;69.90;;;;;;5094109;28;20441;-62
2021/03/30 00:52:23;;;;;;;1.40;0.20;;;12.20;70.40;;;;;;5101741;28;20496;-62
2021/03/30 00:54:50;;;;;;;1.40;0.20;;;12.20;71.10;;;;;;5103089;28;20438;-61
2021/03/30 00:57:18;;;;;;;1.40;0.20;;;12.20;71.80;;;;;;5092801;28;20187;-61
2021/03/30 00:59:44;;;;;;;1.40;0.20;;;12.20;72.30;;;;;;5091384;28;20464;-61
2021/03/30 01:02:10;;;;;;;1.40;0.20;;;12.10;72.50;;;;;;5098784;28;20476;-62
2021/03/30 01:04:36;;;;;;;1.47;0.47;;;12.10;72.80;;;;;;5092616;28;20426;-62
2021/03/30 01:07:02;;;;;;;29.40;13.80;;;12.10;73.30;;;;;;5092414;28;20437;-62
2021/03/30 01:09:52;;;;;;;1.40;0.20;;;12.00;73.40;;;;;;5105214;28;20195;-62
2021/03/30 01:12:22;;;;;;;1.40;0.20;;;12.00;73.50;;;;;;5092514;28;20464;-62
2021/03/30 01:14:58;;;;;;;1.40;0.20;;;12.00;74.00;;;;;;5092271;28;20445;-62
2021/03/30 01:17:45;;;;;;;1.40;0.20;;;12.00;74.30;;;;;;5096088;28;20714;-63
2021/03/30 01:20:34;;;;;;;1.40;0.20;;;11.90;74.20;;;;;;5094911;28;20465;-62
2021/03/30 01:23:21;;;;;;;1.40;0.20;;;11.90;74.70;;;;;;5098119;28;20468;-63
2021/03/30 01:26:01;;;;;;;1.40;0.20;;;11.90;74.80;;;;;;5097015;28;20435;-62
2021/03/30 01:29:10;;;;;;;1.40;0.20;;;11.80;74.60;;;;;;5094176;28;20539;-62
2021/03/30 01:31:38;;;;;;;1.40;0.20;;;11.80;75.50;;;;;;5125370;28;20445;-63
2021/03/30 01:34:06;;;;;;;1.40;0.20;;;11.70;75.90;;;;;;5119108;28;20432;-63
2021/03/30 01:36:36;;;;;;;1.40;0.20;;;11.70;76.30;;;;;;5115458;28;20994;-63
2021/03/30 01:39:03;;;;;;;1.40;0.20;;;11.70;77.00;;;;;;5111186;28;20980;-63
2021/03/30 01:41:29;;;;;;;1.40;0.20;;;11.60;77.50;;;;;;5109380;28;20460;-64
2021/03/30 01:43:56;;;;;;;1.40;0.20;;;11.60;77.80;;;;;;5118905;28;20518;-66
2021/03/30 01:46:23;;;;;;;1.40;0.20;;;11.60;78.10;;;;;;5116812;28;20426;-67
2021/03/30 01:48:49;;;;;;;1.40;0.20;;;11.60;78.70;;;;;;5108350;28;20453;-63
2021/03/30 01:51:17;;;;;;;1.40;0.20;;;11.60;79.50;;;;;;5109800;28;20507;-63
2021/03/30 01:53:43;;;;;;;1.40;0.20;;;11.50;79.80;;;;;;5105355;28;20437;-62
2021/03/30 01:56:11;;;;;;;1.40;0.20;;;11.50;80.60;;;;;;5091172;28;20439;-62
2021/03/30 01:58:37;;;;;;;1.40;0.20;;;11.50;80.90;;;;;;5105573;28;20430;-63
2021/03/30 02:01:04;;;;;;;1.40;0.20;;;11.50;81.10;;;;;;5096362;28;20816;-62
2021/03/30 02:03:30;;;;;;;1.40;0.20;;;11.40;81.50;;;;;;5094238;28;20801;-62
2021/03/30 02:05:57;;;;;;;1.40;0.20;;;11.40;82.00;;;;;;5112728;28;20438;-62
2021/03/30 02:08:25;;;;;;;1.40;0.20;;;11.40;82.20;;;;;;5109648;28;20256;-62
2021/03/30 02:10:54;;;;;;;1.50;0.20;;;11.40;82.60;;;;;;5110821;28;20443;-64
2021/03/30 02:15:58;;;;;;;1.47;0.20;;;11.30;83.60;;;;;;5106860;28;20524;-63
2021/03/30 02:18:27;;;;;;;1.40;0.20;;;11.20;84.80;;;;;;5106719;28;20497;-63
2021/03/30 02:21:01;;;;;;;1.40;0.20;;;11.20;84.40;;;;;;5104575;28;20462;-62
2021/03/30 02:23:30;;;;;;;1.40;0.20;;;11.30;84.20;;;;;;5097329;28;20442;-62
2021/03/30 02:25:58;;;;;;;1.40;0.20;;;11.20;84.30;;;;;;5093280;28;20435;-62
2021/03/30 02:28:41;;;;;;;1.40;0.20;;;11.20;84.20;;;;;;5081520;28;20442;-62
2021/03/30 02:31:09;;;;;;;1.40;0.20;;;11.20;84.10;;;;;;5091606;28;20531;-62
2021/03/30 02:33:36;;;;;;;1.47;0.20;;;11.10;84.50;;;;;;5092171;28;20797;-62
2021/03/30 02:36:02;;;;;;;1.43;0.20;;;11.10;84.30;;;;;;5103816;28;20469;-62
2021/03/30 02:38:31;;;;;;;1.43;0.20;;;10.90;84.50;;;;;;5092948;28;20944;-62
2021/03/30 02:40:58;;;;;;;1.40;0.20;;;11.00;84.80;;;;;;5097613;28;20472;-62
2021/03/30 02:43:24;;;;;;;1.47;0.20;;;11.00;84.30;;;;;;5096013;28;20461;-62
2021/03/30 02:45:52;;;;;;;1.40;0.20;;;11.00;83.60;;;;;;5085766;28;20434;-62
2021/03/30 02:48:19;;;;;;;1.43;0.20;;;11.00;83.50;;;;;;5093279;28;20504;-62
2021/03/30 02:50:47;;;;;;;1.47;0.20;;;11.00;83.10;;;;;;5099835;28;20509;-62
2021/03/30 02:53:14;;;;;;;1.40;0.20;;;11.00;83.90;;;;;;5087129;28;20465;-62
2021/03/30 02:55:41;;;;;;;1.40;0.20;;;10.90;85.00;;;;;;5097191;28;20434;-62
2021/03/30 02:58:08;;;;;;;1.40;0.20;;;10.80;85.40;;;;;;5092892;28;20437;-62
2021/03/30 03:00:37;;;;;;;1.40;0.20;;;10.70;85.60;;;;;;5106732;28;20462;-62
2021/03/30 03:03:04;;;;;;;1.43;0.20;;;10.70;85.10;;;;;;5090632;28;20465;-62
2021/03/30 03:05:30;;;;;;;1.47;0.20;;;10.70;84.40;;;;;;5104336;28;20884;-62
2021/03/30 03:07:57;;;;;;;1.47;0.20;;;10.50;83.80;;;;;;5088845;28;20441;-62
2021/03/30 03:10:23;;;;;;;1.43;0.30;;;10.60;84.10;;;;;;5098243;28;20188;-61
2021/03/30 03:12:49;;;;;;;1.47;0.20;;;10.60;83.30;;;;;;5095582;28;20469;-62
2021/03/30 03:15:17;;;;;;;1.40;0.20;;;10.70;83.70;;;;;;5092055;28;20446;-62
2021/03/30 03:17:44;;;;;;;1.40;0.20;;;10.70;83.40;;;;;;5097046;28;20456;-61
2021/03/30 03:20:11;;;;;;;1.43;0.20;;;10.70;83.50;;;;;;5098222;28;20472;-61
2021/03/30 03:22:37;;;;;;;1.40;0.20;;;10.70;83.50;;;;;;5095742;28;20458;-61
2021/03/30 03:25:06;;;;;;;1.40;0.20;;;10.70;83.40;;;;;;5106488;28;20472;-61
2021/03/30 03:27:35;;;;;;;1.40;0.20;;;10.70;83.70;;;;;;5089614;28;20442;-61
2021/03/30 03:30:10;;;;;;;1.40;0.20;;;10.70;83.60;;;;;;5091698;28;20497;-62
2021/03/30 03:32:35;;;;;;;1.50;0.20;;;10.70;83.70;;;;;;5097265;28;21012;-61
2021/03/30 03:35:02;;;;;;;1.43;0.20;;;10.70;84.00;;;;;;5087121;28;20445;-61
2021/03/30 03:37:30;;;;;;;4.03;3.50;;;10.70;84.00;;;;;;5079919;28;20195;-62
2021/03/30 03:39:55;;;;;;;7.10;3.90;;;10.60;85.20;;;;;;5118049;28;20450;-62
2021/03/30 03:42:21;;;;;;;1.80;0.70;;;10.40;86.10;;;;;;5117993;28;20449;-61
2021/03/30 03:44:47;;;;;;;1.43;0.20;;;10.30;86.80;;;;;;5113433;28;20196;-62
2021/03/30 03:47:12;;;;;;;1.50;0.30;;;10.20;87.20;;;;;;5084887;28;20653;-61
2021/03/30 03:49:38;;;;;;;1.83;1.40;;;10.20;87.80;;;;;;5092285;28;20191;-61
2021/03/30 03:52:14;;;;;;;1.40;0.20;;;10.10;88.30;;;;;;5097145;28;20208;-61
2021/03/30 03:54:43;;;;;;;1.50;0.20;;;10.10;89.00;;;;;;5090397;28;20851;-61
2021/03/30 03:57:24;;;;;;;4.57;4.27;;;10.10;89.40;;;;;;5072925;28;20450;-61
2021/03/30 03:59:50;;;;;;;1.60;0.53;;;10.10;90.10;;;;;;5089612;28;20473;-61
2021/03/30 04:02:24;;;;;;;1.50;0.20;;;10.00;90.60;;;;;;5098435;28;20996;-62
2021/03/30 04:05:10;;;;;;;3.10;2.13;;;9.90;91.20;;;;;;5094217;28;20179;-62
2021/03/30 04:07:47;;;;;;;1.50;0.20;;;9.80;91.40;;;;;;5076558;28;20434;-62
2021/03/30 04:10:19;;;;;;;1.40;0.20;;;9.80;91.60;;;;;;5089817;28;20927;-61
2021/03/30 04:12:45;;;;;;;1.47;0.20;;;9.80;91.90;;;;;;5100594;28;20452;-61
2021/03/30 04:15:11;;;;;;;1.90;0.50;;;9.90;91.40;;;;;;5091116;28;20446;-61
2021/03/30 04:17:39;;;;;;;1.47;0.20;;;9.90;91.20;;;;;;5101508;28;20476;-61
2021/03/30 04:20:14;;;;;;;1.43;0.20;;;9.90;91.50;;;;;;5094735;28;20489;-62
2021/03/30 04:22:41;;;;;;;1.40;0.20;;;9.90;91.40;;;;;;5090672;28;20495;-62
2021/03/30 04:25:07;;;;;;;1.43;0.20;;;9.90;91.30;;;;;;5093190;28;20449;-61
2021/03/30 04:27:33;;;;;;;1.40;0.20;;;9.90;91.20;;;;;;5099493;28;21301;-62
2021/03/30 04:29:58;;;;;;;1.40;0.20;;;9.80;91.30;;;;;;5096389;28;20458;-61
2021/03/30 04:32:24;;;;;;;1.47;0.20;;;9.70;91.40;;;;;;5100074;28;20629;-61
2021/03/30 04:34:50;;;;;;;1.80;0.60;;;9.80;91.30;;;;;;5101225;28;20218;-62
2021/03/30 04:37:15;;;;;;;2.27;1.23;;;9.70;91.60;;;;;;5110102;28;20188;-66
2021/03/30 04:39:41;;;;;;;1.40;0.20;;;9.70;92.00;;;;;;5112656;28;20210;-62
2021/03/30 04:42:07;;;;;;;1.50;0.40;;;9.80;91.40;;;;;;5102164;28;20216;-63
2021/03/30 04:44:32;;;;;;;1.40;0.20;;;9.80;91.00;;;;;;5103549;28;20172;-61
2021/03/30 04:46:58;;;;;;;1.40;0.20;;;9.70;91.00;;;;;;5097748;28;20421;-61
2021/03/30 04:49:24;;;;;;;1.47;0.20;;;9.70;91.10;;;;;;5096537;28;20221;-61
2021/03/30 04:51:49;;;;;;;1.43;0.20;;;9.70;91.50;;;;;;5099360;28;20508;-61
2021/03/30 04:54:15;;;;;;;1.40;0.20;;;9.60;91.40;;;;;;5102077;28;20292;-62
2021/03/30 04:56:40;;;;;;;1.40;0.20;;;9.60;91.30;;;;;;5095499;28;20194;-61
2021/03/30 04:59:06;;;;;;;1.40;0.20;;;9.70;91.20;;;;;;5096928;28;20204;-61
2021/03/30 05:01:31;;;;;;;1.50;0.20;;;9.70;91.10;;;;;;5095944;28;20761;-62
2021/03/30 05:03:57;;;;;;;1.40;0.20;;;9.70;91.00;;;;;;5096939;28;20192;-62
2021/03/30 05:06:23;;;;;;;1.43;0.20;;;9.70;90.80;;;;;;5100091;28;20168;-62
2021/03/30 05:08:48;;;;;;;1.40;0.20;;;9.70;91.20;;;;;;5088375;28;20183;-62
2021/03/30 05:11:14;;;;;;;1.40;0.20;;;9.70;90.90;;;;;;5097958;28;20233;-62
2021/03/30 05:13:39;;;;;;;1.40;0.20;;;9.70;91.10;;;;;;5102474;28;20191;-61
2021/03/30 05:16:05;;;;;;;1.40;0.20;;;9.60;91.30;;;;;;5097848;28;20191;-62
2021/03/30 05:18:31;;;;;;;1.40;0.20;;;9.60;91.50;;;;;;5103272;28;20172;-62
2021/03/30 05:20:56;;;;;;;1.43;0.20;;;9.60;91.70;;;;;;5099943;28;20468;-62
2021/03/30 05:23:22;;;;;;;1.50;0.20;;;9.50;91.70;;;;;;5092555;28;20205;-62
2021/03/30 05:25:47;;;;;;;1.40;0.20;;;9.50;91.90;;;;;;5097697;28;20194;-62
2021/03/30 05:28:13;;;;;;;1.43;0.20;;;9.50;91.80;;;;;;5098494;28;20176;-63
2021/03/30 05:30:38;;;;;;;1.40;0.20;;;9.50;92.00;;;;;;5092409;28;20196;-62
2021/03/30 05:33:04;;;;;;;1.40;0.20;;;9.50;92.00;;;;;;5096406;28;20204;-62
2021/03/30 05:35:30;;;;;;;1.47;0.20;;;9.50;91.90;;;;;;5100387;28;20198;-62
2021/03/30 05:37:56;;;;;;;1.40;0.20;;;9.50;92.00;;;;;;5096364;28;20520;-62
2021/03/30 05:40:22;;;;;;;1.50;0.20;;;9.40;92.40;;;;;;5099177;28;20211;-62
2021/03/30 05:42:48;;;;;;;1.50;0.30;;;9.40;92.80;;;;;;5087490;28;20458;-62
2021/03/30 05:45:17;;;;;;;1.43;0.20;;;9.40;92.70;;;;;;5097269;28;20438;-62
2021/03/30 05:47:43;;;;;;;1.47;0.20;;;9.50;92.50;;;;;;5091824;28;20508;-61
2021/03/30 05:50:15;;;;;;;1.40;0.20;;;9.50;92.30;;;;;;5093558;28;20438;-62
2021/03/30 05:52:48;;;;;;;1.47;0.20;;;9.60;92.20;;;;;;5082383;28;20479;-61
2021/03/30 05:55:24;;;;;;;1.40;0.20;;;9.60;92.50;;;;;;5101091;28;20429;-62
2021/03/30 05:57:52;;;;;;;1.43;0.20;;;9.50;92.70;;;;;;5092274;28;20464;-62
2021/03/30 06:00:21;;;;;;;1.47;0.20;;;9.50;93.00;;;;;;5090921;28;20520;-62
2021/03/30 06:02:47;;;;;;;13.00;12.30;;;9.50;93.30;;;;;;5090343;28;20512;-62
2021/03/30 06:05:15;;;;;;;1.40;0.20;;;9.50;93.20;;;;;;5087843;28;20430;-63
2021/03/30 06:07:41;;;;;;;1.40;0.20;;;9.50;93.20;;;;;;5099226;28;20524;-62
2021/03/30 06:10:14;;;;;;;1.43;0.20;;;9.60;93.40;;;;;;5101759;28;20990;-62
2021/03/30 06:12:40;;;;;;;1.40;0.20;;;9.50;93.70;;;;;;5092839;28;20595;-62
2021/03/30 06:15:07;;;;;;;1.40;0.20;;;9.50;94.00;;;;;;5081692;28;20518;-62
2021/03/30 06:17:40;;;;;;;1.40;0.20;;;9.50;94.00;;;;;;5094466;28;20184;-62
2021/03/30 06:20:08;;;;;;;1.43;0.20;;;9.60;93.90;;;;;;5096209;28;20460;-62
2021/03/30 06:22:48;;;;;;;1.43;0.20;;;9.70;94.00;;;;;;5092675;28;20524;-62
2021/03/30 06:25:43;;;;;;;1.43;0.20;;;9.70;94.00;;;;;;5095162;28;20528;-61
2021/03/30 06:28:17;;;;;;;1.43;0.20;;;9.80;93.80;;;;;;5098032;28;20437;-62
2021/03/30 06:30:56;;;;;;;1.40;0.20;;;9.70;94.00;;;;;;5092364;28;20446;-62
2021/03/30 06:33:22;;;;;;;1.47;0.27;;;9.80;94.10;;;;;;5092871;28;21728;-62
2021/03/30 06:35:48;;;;;;;1.40;0.20;;;9.80;94.30;;;;;;5093322;28;20445;-61
2021/03/30 06:38:14;;;;;;;1.40;0.20;;;9.70;94.50;;;;;;5088822;28;20636;-61
2021/03/30 06:40:42;;;;;;;1.40;0.20;;;9.80;94.60;;;;;;5099962;28;20469;-60
2021/03/30 06:46:09;;;;;;;1.40;0.20;;;9.80;94.80;;;;;;5088743;28;20442;-61
2021/03/30 06:48:34;;;;;;;1.40;0.20;;;9.90;95.10;;;;;;5097104;28;20587;-62
2021/03/30 06:51:24;;;;;;;1.43;0.20;;;9.90;95.10;;;;;;5078222;28;20469;-61
2021/03/30 06:53:50;;;;;;;1.60;0.80;;;10.00;94.80;;;;;;5097636;28;20183;-63
2021/03/30 06:56:15;;;;;;;1.47;0.20;;;9.90;95.40;;;;;;5104927;28;20430;-64
2021/03/30 06:59:00;;;;;;;1.40;0.20;;;10.00;94.90;;;;;;5102635;28;20437;-64
2021/03/30 07:01:28;;;;;;;1.50;0.20;;;10.10;95.00;;;;;;5096225;28;20207;-61
2021/03/30 07:03:55;;;;;;;1.40;0.20;;;10.10;94.90;;;;;;5102837;28;20511;-62
2021/03/30 07:06:22;;;;;;;1.70;0.93;;;10.20;94.90;;;;;;5097899;28;20512;-62
2021/03/30 07:08:48;;;;;;;1.40;0.20;;;10.30;94.90;;;;;;5095349;28;20433;-62
2021/03/30 07:11:17;;;;;;;1.60;0.80;;;10.30;94.80;;;;;;5101376;28;20426;-62
2021/03/30 07:13:42;;;;;;;1.40;0.20;;;10.40;94.80;;;;;;5098022;28;20433;-63
2021/03/30 07:16:21;;;;;;;1.40;0.20;;;10.50;94.70;;;;;;5091093;28;21017;-62
2021/03/30 07:18:54;;;;;;;1.40;0.20;;;10.50;94.60;;;;;;5097547;28;20221;-62
2021/03/30 07:21:22;;;;;;;1.50;0.20;;;10.60;94.60;;;;;;5095506;28;20494;-62
2021/03/30 07:23:57;;;;;;;1.40;0.20;;;10.70;94.00;;;;;;5089427;28;20586;-62
2021/03/30 07:26:28;;;;;;;1.40;0.20;;;10.80;93.50;;;;;;5092612;28;20913;-64
2021/03/30 07:29:07;;;;;;;1.43;0.20;;;10.90;93.80;;;;;;5075447;28;20788;-62
2021/03/30 07:31:54;;;;;;;1.43;0.20;;;11.00;93.30;;;;;;5089185;28;20495;-63
2021/03/30 07:34:29;;;;;;;1.50;0.20;;;11.00;93.00;;;;;;5093243;28;20436;-63
2021/03/30 07:37:08;;;;;;;1.40;0.20;;;11.10;92.70;;;;;;5096443;28;20428;-64
2021/03/30 07:39:39;;;;;;;1.40;0.20;;;11.20;92.30;;;;;;5070108;28;20461;-63
2021/03/30 07:42:05;;;;;;;1.43;0.20;;;11.30;92.00;;;;;;5095147;28;20458;-62
2021/03/30 07:44:31;;;;;;;1.40;0.20;;;11.30;91.70;;;;;;5100802;28;20450;-62
2021/03/30 07:46:58;;;;;;;1.50;0.20;;;11.40;91.50;;;;;;5090413;28;20443;-62
2021/03/30 07:49:28;;;;;;;1.47;0.20;;;11.50;91.30;;;;;;5095570;28;20486;-63
2021/03/30 07:51:53;;;;;;;1.47;0.20;;;11.60;90.90;;;;;;5102510;28;20445;-62
2021/03/30 07:54:19;;;;;;;1.47;0.20;;;11.70;90.90;;;;;;5093049;28;20472;-62
2021/03/30 07:56:44;;;;;;;1.47;0.23;;;11.70;90.40;;;;;;5101295;28;20266;-61
2021/03/30 07:59:44;;;;;;;1.40;0.20;;;11.80;90.10;;;;;;5095449;28;20216;-62
2021/03/30 08:02:13;;;;;;;1.50;0.20;;;11.90;89.60;;;;;;5086543;28;20223;-62
2021/03/30 08:05:00;;;;;;;1.40;0.20;;;12.00;87.90;;;;;;5090059;28;20566;-63
2021/03/30 08:07:54;;;;;;;1.50;0.20;;;12.00;87.60;;;;;;5097608;28;20510;-63
2021/03/30 08:10:28;;;;;;;1.40;0.20;;;12.10;87.10;;;;;;5090076;28;20444;-62
2021/03/30 08:13:26;;;;;;;1.40;0.20;;;12.20;86.50;;;;;;5088589;28;20966;-64
2021/03/30 08:15:54;;;;;;;1.40;0.20;;;12.30;86.00;;;;;;5085926;28;20456;-63
2021/03/30 08:18:21;;;;;;;1.40;0.20;;;12.40;86.20;;;;;;5101182;28;20441;-62
2021/03/30 08:20:57;;;;;;;1.40;0.20;;;12.50;86.20;;;;;;5096050;28;20465;-61
2021/03/30 08:23:24;;;;;;;1.47;0.20;;;12.60;85.90;;;;;;5069774;28;20990;-61
2021/03/30 08:25:54;;;;;;;1.47;0.20;;;12.70;86.10;;;;;;5094371;28;21190;-62
2021/03/30 08:28:47;;;;;;;1.47;0.37;;;12.80;85.80;;;;;;5084463;28;20443;-63
2021/03/30 08:31:13;;;;;;;1.40;0.20;;;12.80;85.60;;;;;;5098322;28;20425;-62
2021/03/30 08:33:40;;;;;;;1.43;0.20;;;12.90;85.70;;;;;;5100068;28;20445;-63
2021/03/30 08:36:45;;;;;;;1.70;0.50;;;12.90;85.00;;;;;;5070145;28;20574;-63
2021/03/30 08:39:29;;;;;;;1.47;0.27;;;13.10;84.50;;;;;;5070623;28;20481;-62
2021/03/30 08:41:56;;;;;;;1.40;0.20;;;13.20;84.00;;;;;;5075145;28;20472;-63
2021/03/30 08:44:36;;;;;;;1.50;0.30;;;13.20;83.30;;;;;;5088227;28;20964;-65
2021/03/30 08:47:02;;;;;;;1.40;0.20;;;13.30;82.70;;;;;;5074538;28;20432;-63
2021/03/30 08:49:34;;;;;;;1.47;0.20;;;13.40;82.50;;;;;;5094886;28;20446;-62
2021/03/30 08:52:04;;;;;;;1.50;0.20;;;13.40;82.40;;;;;;5094532;28;20971;-64
2021/03/30 08:54:36;;;;;;;1.40;0.20;;;13.40;81.70;;;;;;5089101;28;20445;-65
2021/03/30 08:57:08;;;;;;;8.03;1.77;;;13.60;81.30;;;;;;5090277;28;20473;-62
2021/03/30 08:59:34;;;;;;;1.40;0.20;;;13.70;81.20;;;;;;5075619;28;20521;-62
2021/03/30 09:02:07;;;;;;;1.50;0.20;;;13.80;80.40;;;;;;5073034;28;20994;-63
2021/03/30 09:04:39;;;;;;;1.50;0.20;;;13.90;79.30;;;;;;5097976;28;20430;-62
2021/03/30 09:07:06;;;;;;;1.40;0.20;;;13.90;78.90;;;;;;5098665;28;20520;-65
2021/03/30 09:09:34;;;;;;;1.47;0.20;;;14.00;78.80;;;;;;5085765;28;20445;-62
2021/03/30 09:12:20;;;;;;;3.63;1.10;;;14.00;78.50;;;;;;5096534;28;20470;-62
2021/03/30 09:15:00;;;;;;;1.40;0.20;;;14.20;78.10;;;;;;5099360;28;20905;-63
2021/03/30 09:17:28;;;;;;;1.40;0.20;;;14.30;77.30;;;;;;5093196;28;20498;-62
2021/03/30 09:19:54;;;;;;;1.43;0.30;;;14.30;77.90;;;;;;5094355;28;20984;-63
2021/03/30 09:22:27;;;;;;;1.40;0.20;;;14.30;77.90;;;;;;5104995;28;20537;-62
2021/03/30 09:26:11;;;;;;;1.40;0.20;;;14.40;77.40;;;;;;5074154;28;20796;-62
2021/03/30 09:28:16;;;;;;;1.40;0.20;;;14.50;76.60;;;;;;5073978;28;20969;-63
2021/03/30 09:30:44;;;;;;;1.40;0.20;;;14.70;75.80;;;;;;5101817;28;20468;-62
2021/03/30 09:33:10;;;;;;;1.47;0.20;;;14.70;76.00;;;;;;5077996;28;20962;-62
2021/03/30 09:35:35;;;;;;;1.43;0.20;;;14.80;76.50;;;;;;5095669;28;20843;-62
2021/03/30 09:38:04;;;;;;;2.20;1.50;;;14.80;75.70;;;;;;5106173;28;20442;-61
2021/03/30 09:40:41;;;;;;;2.03;1.70;;;14.90;75.50;;;;;;5091709;28;20212;-61
2021/03/30 09:43:08;;;;;;;1.40;0.20;;;15.00;75.60;;;;;;5091490;28;20545;-62
2021/03/30 09:45:35;;;;;;;1.47;0.20;;;15.00;74.80;;;;;;5088281;28;20443;-63
2021/03/30 09:48:05;;;;;;;1.40;0.20;;;15.20;75.00;;;;;;5095516;28;20560;-62
2021/03/30 09:50:31;;;;;;;1.40;0.20;;;15.20;74.60;;;;;;5095393;28;20917;-62
2021/03/30 09:53:02;;;;;;;1.40;0.20;;;15.30;74.10;;;;;;5076117;28;20466;-63
2021/03/30 09:55:36;;;;;;;1.43;0.20;;;15.40;74.30;;;;;;5105849;28;20425;-62
2021/03/30 09:58:17;;;;;;;1.40;0.20;;;15.50;74.10;;;;;;5086551;28;20929;-62
2021/03/30 10:00:55;;;;;;;1.40;0.20;;;15.60;73.80;;;;;;5111829;28;20982;-62
2021/03/30 10:03:22;;;;;;;1.40;0.20;;;15.60;73.30;;;;;;5109654;28;20483;-62
2021/03/30 10:05:48;;;;;;;1.40;0.20;;;15.70;73.30;;;;;;5098861;28;20423;-62
2021/03/30 10:08:21;;;;;;;1.40;0.20;;;15.70;72.30;;;;;;5115270;28;20414;-62
2021/03/30 10:10:50;;;;;;;1.40;0.20;;;15.80;71.80;;;;;;5110980;28;20179;-64
2021/03/30 10:13:26;;;;;;;1.40;0.20;;;15.80;71.30;;;;;;5105638;28;20480;-64
2021/03/30 10:15:52;;;;;;;1.40;0.20;;;15.90;71.80;;;;;;5101103;28;20450;-62
2021/03/30 10:18:18;;;;;;;1.40;0.20;;;16.00;71.40;;;;;;5090529;28;20438;-62
2021/03/30 10:20:46;;;;;;;1.40;0.20;;;16.20;70.30;;;;;;5106377;28;20462;-62
2021/03/30 10:23:22;;;;;;;1.40;0.20;;;16.20;69.80;;;;;;5104170;28;20462;-63
2021/03/30 10:25:48;;;;;;;1.50;0.30;;;16.40;68.70;;;;;;5088075;28;20436;-64
2021/03/30 10:28:31;;;;;;;1.50;0.50;;;16.40;68.10;;;;;;5101286;28;20480;-62
2021/03/30 10:33:55;;;;;;;1.40;0.20;;;16.70;65.70;;;;;;5077064;28;20476;-62
2021/03/30 10:36:21;;;;;;;1.50;0.50;;;16.90;62.70;;;;;;5107577;28;20446;-64
2021/03/30 10:39:05;;;;;;;1.40;0.20;;;16.90;63.80;;;;;;5101898;28;20179;-62
2021/03/30 10:41:40;;;;;;;1.70;0.70;;;17.00;63.70;;;;;;5113695;28;20229;-62
2021/03/30 10:44:07;;;;;;;1.40;0.20;;;17.00;64.00;;;;;;5103831;28;20428;-62
2021/03/30 10:46:48;;;;;;;1.40;0.20;;;17.20;61.70;;;;;;5105311;28;20824;-64
2021/03/30 10:49:15;;;;;;;1.40;0.20;;;17.30;60.10;;;;;;5102462;28;20455;-62
2021/03/30 10:51:43;;;;;;;1.40;0.20;;;17.30;59.20;;;;;;5106055;28;20452;-62
2021/03/30 10:54:11;;;;;;;2.00;0.77;;;17.30;58.90;;;;;;5086823;28;20445;-62
2021/03/30 10:56:38;;;;;;;8.27;7.70;;;17.30;58.10;;;;;;5106053;28;20420;-66
2021/03/30 10:59:08;;;;;;;1.50;0.40;;;17.30;56.50;;;;;;5104992;28;20488;-62
2021/03/30 11:01:34;;;;;;;1.40;0.20;;;17.30;53.50;;;;;;5110903;28;20566;-65
2021/03/30 11:03:59;;;;;;;1.40;0.20;;;17.40;51.90;;;;;;5102406;28;20444;-63
2021/03/30 11:06:25;;;;;;;1.40;0.20;;;17.50;50.70;;;;;;5097759;28;20190;-64
2021/03/30 11:08:50;;;;;;;1.40;0.20;;;17.70;51.90;;;;;;5103104;28;20183;-65
2021/03/30 11:11:16;;;;;;;1.40;0.20;;;17.80;52.40;;;;;;5107134;28;20187;-63
2021/03/30 11:13:41;;;;;;;1.40;0.20;;;17.90;51.30;;;;;;5100626;28;20203;-63
2021/03/30 11:16:07;;;;;;;1.40;0.30;;;17.90;50.20;;;;;;5113203;28;20191;-62
2021/03/30 11:18:32;;;;;;;1.40;0.20;;;18.00;48.50;;;;;;5103166;28;20223;-65
2021/03/30 11:20:58;;;;;;;1.40;0.20;;;18.20;48.30;;;;;;5103556;28;20286;-63
2021/03/30 11:23:23;;;;;;;1.40;0.20;;;18.30;48.60;;;;;;5109194;28;20189;-63
2021/03/30 11:25:49;;;;;;;3.40;3.17;;;18.30;48.80;;;;;;5103068;28;20184;-64
2021/03/30 11:28:15;;;;;;;1.40;0.20;;;18.30;48.80;;;;;;5086985;28;20280;-62
2021/03/30 11:30:48;;;;;;;1.40;0.30;;;18.30;48.80;;;;;;5113500;28;20280;-62
2021/03/30 11:33:30;;;;;;;1.40;0.20;;;18.30;48.10;;;;;;5104797;28;20454;-64
2021/03/30 11:38:29;;;;;;;1.40;0.20;;;18.50;46.90;;;;;;5110226;28;20446;-62
2021/03/30 11:40:56;;;;;;;1.40;0.20;;;18.60;47.40;;;;;;5103541;28;20457;-63
2021/03/30 11:43:21;;;;;;;1.40;0.20;;;18.80;48.50;;;;;;5106089;28;20202;-62
2021/03/30 11:45:47;;;;;;;1.40;0.20;;;18.90;49.30;;;;;;5095286;28;20460;-63
2021/03/30 11:48:13;;;;;;;1.40;0.20;;;18.90;47.70;;;;;;5100570;28;20525;-66
2021/03/30 11:50:38;;;;;;;1.40;0.20;;;19.00;47.10;;;;;;5108797;28;20197;-62
2021/03/30 11:53:04;;;;;;;1.40;0.20;;;19.00;45.80;;;;;;5106167;28;20204;-63
2021/03/30 11:55:30;;;;;;;1.33;0.20;;;19.00;45.70;;;;;;5098740;28;20192;-64
2021/03/30 11:57:55;;;;;;;1.40;0.20;;;19.00;45.60;;;;;;5109836;28;20541;-63
2021/03/30 12:00:21;;;;;;;1.93;1.33;;;19.00;45.50;;;;;;5107145;28;20226;-63
2021/03/30 12:02:47;;;;;;;1.40;0.20;;;19.10;45.10;;;;;;5101030;28;20656;-63
2021/03/30 12:05:13;;;;;;;1.40;0.20;;;19.10;45.50;;;;;;5108861;28;20438;-67
2021/03/30 12:07:39;;;;;;;1.40;0.20;;;19.10;45.40;;;;;;5107354;28;20448;-65
2021/03/30 12:10:07;;;;;;;1.40;0.30;;;19.20;44.90;;;;;;5100448;28;20204;-65
2021/03/30 12:12:33;;;;;;;1.40;0.20;;;19.30;45.40;;;;;;5109882;28;20216;-67
2021/03/30 12:14:59;;;;;;;1.40;0.20;;;19.30;45.60;;;;;;5102208;28;20977;-64
2021/03/30 12:17:25;;;;;;;1.33;0.20;;;19.40;45.30;;;;;;5098619;28;20465;-64
2021/03/30 12:19:51;;;;;;;1.40;0.20;;;19.50;44.90;;;;;;5109907;28;20244;-63
2021/03/30 12:22:17;;;;;;;1.40;0.20;;;19.50;44.60;;;;;;5100337;28;20457;-64
2021/03/30 12:24:43;;;;;;;1.40;0.20;;;19.50;44.80;;;;;;5098510;28;20437;-63
2021/03/30 12:27:10;;;;;;;1.37;0.20;;;19.60;44.10;;;;;;5098411;28;20969;-64
2021/03/30 12:29:39;;;;;;;1.40;0.20;;;19.70;43.90;;;;;;5098489;28;20655;-64
2021/03/30 12:32:06;;;;;;;1.40;0.20;;;19.80;43.80;;;;;;5077287;28;20462;-65
2021/03/30 12:34:34;;;;;;;1.40;0.20;;;19.80;43.60;;;;;;5105143;28;20461;-66
2021/03/30 12:37:01;;;;;;;2.13;1.50;;;19.90;43.70;;;;;;5092500;28;20446;-65
2021/03/30 12:39:26;;;;;;;1.60;0.60;;;20.10;43.80;;;;;;5094196;28;20944;-66
2021/03/30 12:41:52;;;;;;;3.00;1.40;;;20.20;41.80;;;;;;5088512;28;20456;-63
2021/03/30 12:44:18;;;;;;;1.40;0.20;;;20.30;41.70;;;;;;5084725;28;20210;-63
2021/03/30 12:46:44;;;;;;;2.57;2.13;;;20.40;42.30;;;;;;5096842;28;20187;-64
2021/03/30 12:49:09;;;;;;;1.40;0.20;;;20.40;41.70;;;;;;5071966;28;20497;-65
2021/03/30 12:51:35;;;;;;;1.70;0.67;;;20.40;42.10;;;;;;5088509;28;20454;-64
2021/03/30 12:54:01;;;;;;;28.57;6.10;;;20.40;42.70;;;;;;5091763;28;20184;-62
2021/03/30 12:56:27;;;;;;;1.40;0.20;;;20.40;42.40;;;;;;5091337;28;20643;-63
2021/03/30 12:58:52;;;;;;;4.47;2.27;;;20.40;43.40;;;;;;5090272;28;20502;-64
2021/03/30 13:01:18;;;;;;;4.30;1.30;;;20.60;42.80;;;;;;5101671;28;20226;-63
2021/03/30 13:03:44;;;;;;;2.23;0.53;;;20.60;42.70;;;;;;5089219;28;20266;-63
2021/03/30 13:06:09;;;;;;;2.63;0.83;;;20.80;42.20;;;;;;5088016;28;20205;-63
2021/03/30 13:08:35;;;;;;;1.70;0.77;;;20.80;41.80;;;;;;5091772;28;20190;-63
2021/03/30 13:11:00;;;;;;;1.40;0.20;;;20.80;41.60;;;;;;5076043;28;20195;-63